< < Back
Terminal Aerodrome Forecast


Current Version              Previous Versions:   1  2  3  4  5  6  7  8  9  

Terminal Aerodrome Forecast

347
FTUS44 KMRX 272320
TAFTYS
TAF
KTYS 272320Z 2800/2824 00000KT P6SM SKC
     FM281500 36003KT P6SM SCT040=

Latest METAR

132
SAUS80 KWBC 280100 RRB
MTRTYS
METAR KTYS 280053Z 00000KT 10SM SCT250 26/17 A3004 RMK AO2 SLP164
T02560167


USA.gov is the U.S. government's official web portal to all federal, state and local government web resources and services.